Time;durP1;ratioP1;P1;durP2;ratioP2;P2;SDS_P1;SDS_P2;PMS_P1;PMS_P2;Temp;Humidity;BMP_temperature;BMP_pressure;BME280_temperature;BME280_humidity;BME280_pressure;Samples;Min_cycle;Max_cycle;Signal;HPM_P1;HPM_P2
2023/06/20 00:00:06;;;;;;;16.55;13.48;;;;;;;20.96;71.50;101058.09;4999152;28;20049;-68
2023/06/20 00:02:32;;;;;;;20.63;13.45;;;;;;;20.99;70.60;101057.75;4993257;28;20738;-69
2023/06/20 00:04:59;;;;;;;16.25;12.85;;;;;;;20.98;71.66;101057.91;5000801;28;20064;-68
2023/06/20 00:07:25;;;;;;;19.70;13.35;;;;;;;20.95;71.11;101061.06;5008322;28;20064;-69
2023/06/20 00:09:51;;;;;;;17.67;12.98;;;;;;;20.94;70.51;101051.88;5008906;28;20073;-68
2023/06/20 00:12:16;;;;;;;19.63;13.15;;;;;;;20.92;71.31;101051.19;4995632;28;20083;-69
2023/06/20 00:14:42;;;;;;;20.33;12.90;;;;;;;20.89;71.21;101057.94;5011841;28;20037;-68
2023/06/20 00:17:07;;;;;;;20.50;12.40;;;;;;;20.86;72.08;101054.66;5012928;28;20029;-68
2023/06/20 00:19:33;;;;;;;17.70;12.40;;;;;;;20.83;72.11;101058.63;5011186;28;20409;-68
2023/06/20 00:21:58;;;;;;;15.95;12.40;;;;;;;20.84;71.91;101048.41;5007233;28;20026;-68
2023/06/20 00:24:24;;;;;;;21.25;11.70;;;;;;;20.81;72.87;101049.63;4993960;28;20513;-68
2023/06/20 00:26:49;;;;;;;15.43;11.63;;;;;;;20.77;71.64;101045.50;5007106;28;20493;-68
2023/06/20 00:29:14;;;;;;;16.80;12.48;;;;;;;20.73;73.53;101043.25;5011449;28;20029;-68
2023/06/20 00:31:40;;;;;;;19.42;12.38;;;;;;;20.70;72.57;101040.81;5012350;28;20196;-68
2023/06/20 00:34:05;;;;;;;19.73;12.32;;;;;;;20.66;72.54;101037.53;4996079;28;20030;-68
2023/06/20 00:36:31;;;;;;;16.33;12.23;;;;;;;20.63;74.02;101043.41;4992206;28;20141;-67
2023/06/20 00:38:56;;;;;;;17.08;11.93;;;;;;;20.59;72.51;101042.88;4992497;28;20046;-68
2023/06/20 00:41:22;;;;;;;17.60;11.73;;;;;;;20.57;73.41;101038.56;5005295;28;20397;-68
2023/06/20 00:43:51;;;;;;;15.10;12.25;;;;;;;20.50;71.70;101046.69;4993085;28;20041;-69
2023/06/20 00:46:19;;;;;;;16.05;11.68;;;;;;;20.48;71.53;101042.38;5011810;28;20048;-68
2023/06/20 00:48:47;;;;;;;14.93;11.48;;;;;;;20.49;71.39;101035.78;5010655;28;20103;-68
2023/06/20 00:51:14;;;;;;;14.45;11.73;;;;;;;20.49;73.20;101033.91;5010718;28;20020;-69
2023/06/20 00:53:39;;;;;;;16.50;11.90;;;;;;;20.49;72.81;101033.91;5011572;28;20406;-69
2023/06/20 00:56:05;;;;;;;14.93;11.82;;;;;;;20.47;72.90;101035.97;5000544;28;20022;-69
2023/06/20 00:58:31;;;;;;;16.42;11.55;;;;;;;20.43;71.62;101030.94;5006698;28;20041;-68
2023/06/20 01:00:56;;;;;;;15.77;11.77;;;;;;;20.41;72.53;101033.84;4991636;28;20034;-70
2023/06/20 01:03:22;;;;;;;17.02;11.10;;;;;;;20.43;73.08;101031.78;4991801;28;20076;-69
2023/06/20 01:06:20;;;;;;;14.13;10.63;;;;;;;20.45;71.56;101026.94;4991577;28;20103;-68
2023/06/20 01:08:57;;;;;;;15.32;10.48;;;;;;;20.41;72.30;101019.16;4990004;28;20450;-68
2023/06/20 01:11:40;;;;;;;20.73;11.27;;;;;;;20.42;70.57;101016.22;4999508;28;20061;-68
2023/06/20 01:14:31;;;;;;;21.67;12.02;;;;;;;20.38;70.04;101017.63;5007408;28;20676;-69
2023/06/20 01:17:00;;;;;;;16.35;10.80;;;;;;;20.35;71.68;101015.19;4991235;28;20045;-69
2023/06/20 01:19:53;;;;;;;18.60;10.95;;;;;;;20.37;70.63;101021.41;4991461;28;20038;-68
2023/06/20 01:22:57;;;;;;;13.98;10.95;;;;;;;20.37;71.78;101019.50;4990164;28;20035;-69
2023/06/20 01:25:28;;;;;;;14.27;10.43;;;;;;;20.36;70.33;101014.16;4991303;28;20042;-68
2023/06/20 01:28:21;;;;;;;16.75;10.55;;;;;;;20.35;70.66;101013.28;5006200;28;20317;-68
2023/06/20 01:30:58;;;;;;;16.02;10.02;;;;;;;20.35;71.19;101013.28;4991330;28;20038;-68
2023/06/20 01:33:30;;;;;;;14.00;10.45;;;;;;;20.34;72.95;101014.34;5006076;28;20034;-68
2023/06/20 01:35:59;;;;;;;15.63;11.07;;;;;;;20.29;72.19;101013.97;4991117;28;20088;-68
2023/06/20 01:38:28;;;;;;;15.50;10.35;;;;;;;20.27;71.38;101013.28;4991170;28;20304;-68
2023/06/20 01:40:55;;;;;;;15.73;10.73;;;;;;;20.26;71.94;101007.94;4991415;28;20398;-68
2023/06/20 01:43:22;;;;;;;11.98;10.05;;;;;;;20.24;70.73;101004.47;5005713;28;20041;-68
2023/06/20 01:45:49;;;;;;;14.88;10.77;;;;;;;20.25;70.52;101006.19;4989617;28;20034;-68
2023/06/20 01:48:16;;;;;;;19.85;10.18;;;;;;;20.26;70.64;101002.41;5005835;28;20022;-68
2023/06/20 01:50:42;;;;;;;17.42;11.57;;;;;;;20.23;70.36;100991.69;5006361;28;20459;-69
2023/06/20 01:53:10;;;;;;;15.55;10.45;;;;;;;20.23;72.20;100991.69;4990027;28;20026;-68
2023/06/20 01:55:37;;;;;;;16.38;10.50;;;;;;;20.23;70.22;100987.00;4990468;28;20045;-68
2023/06/20 01:58:04;;;;;;;13.75;10.68;;;;;;;20.23;71.23;100991.69;5005527;28;20038;-68
2023/06/20 02:00:32;;;;;;;13.82;10.35;;;;;;;20.22;72.00;100995.47;5018881;28;20374;-69
2023/06/20 02:02:59;;;;;;;18.40;11.25;;;;;;;20.18;71.80;100994.09;5010234;28;20072;-68
2023/06/20 02:05:27;;;;;;;17.77;10.13;;;;;;;20.17;70.84;100989.59;5008947;28;20124;-68
2023/06/20 02:07:56;;;;;;;15.80;11.25;;;;;;;20.13;71.35;100989.94;4997203;28;20029;-68
2023/06/20 02:10:23;;;;;;;16.92;10.30;;;;;;;20.15;71.56;100983.41;4990699;28;20076;-69
2023/06/20 02:12:51;;;;;;;15.95;10.40;;;;;;;20.10;71.40;100979.25;4990399;28;20076;-68
2023/06/20 02:15:18;;;;;;;15.23;10.20;;;;;;;20.12;70.82;100981.81;5004657;28;20026;-68
2023/06/20 02:17:45;;;;;;;16.65;11.27;;;;;;;20.10;68.79;100972.84;4992295;28;20038;-68
2023/06/20 02:20:12;;;;;;;14.80;10.38;;;;;;;20.11;69.51;100980.09;5005003;28;20124;-68
2023/06/20 02:22:41;;;;;;;16.05;10.95;;;;;;;20.10;70.24;100976.47;4988885;28;20099;-68
2023/06/20 02:25:09;;;;;;;14.15;10.05;;;;;;;20.10;70.09;100981.16;4994244;28;20378;-68
2023/06/20 02:27:39;;;;;;;14.77;10.60;;;;;;;20.08;70.41;100978.53;4989754;28;20116;-68
2023/06/20 02:30:09;;;;;;;18.58;11.45;;;;;;;20.08;70.21;100975.78;4995898;28;20129;-68
2023/06/20 02:32:36;;;;;;;14.35;11.07;;;;;;;20.09;70.41;100977.50;5005315;28;20042;-68
2023/06/20 02:35:04;;;;;;;13.88;10.65;;;;;;;20.06;72.20;100980.63;4990281;28;20122;-68
2023/06/20 02:37:33;;;;;;;18.70;11.05;;;;;;;20.07;70.39;100985.09;4990076;28;20464;-69
2023/06/20 02:40:05;;;;;;;13.60;10.20;;;;;;;20.07;70.59;100985.09;5004962;28;20034;-69
2023/06/20 02:42:32;;;;;;;16.65;11.30;;;;;;;20.06;69.74;100986.13;4989755;28;20449;-69
2023/06/20 02:44:58;;;;;;;17.20;10.43;;;;;;;20.05;70.87;100983.53;5004706;28;20050;-69
2023/06/20 02:47:51;;;;;;;15.75;11.40;;;;;;;20.01;69.38;100974.75;5005098;28;20036;-68
2023/06/20 02:50:49;;;;;;;22.05;11.57;;;;;;;19.97;69.51;100978.88;4990049;28;20030;-69
2023/06/20 02:53:25;;;;;;;17.67;10.95;;;;;;;19.94;68.76;100979.19;4999770;28;20394;-68
2023/06/20 02:55:59;;;;;;;14.38;10.95;;;;;;;19.93;70.13;100969.19;4988041;28;20054;-68
2023/06/20 02:58:27;;;;;;;18.13;11.75;;;;;;;19.89;72.03;100978.84;4988040;28;20045;-69
2023/06/20 03:00:54;;;;;;;17.13;11.60;;;;;;;19.80;71.14;100979.84;5004480;28;20424;-69
2023/06/20 03:03:24;;;;;;;16.35;10.90;;;;;;;19.72;70.84;100972.38;4990464;28;20517;-69
2023/06/20 03:05:56;;;;;;;14.75;10.93;;;;;;;19.73;70.26;100979.66;5006187;28;20041;-69
2023/06/20 03:08:23;;;;;;;;;;;;;;;19.77;69.05;100972.78;5005227;28;20117;-69
2023/06/20 03:10:49;;;;;;;15.75;10.85;;;;;;;19.67;70.81;100971.16;4987845;28;20386;-68
2023/06/20 03:13:15;;;;;;;19.30;12.23;;;;;;;19.59;70.97;100966.47;5004301;28;20046;-68
2023/06/20 03:15:42;;;;;;;19.00;12.55;;;;;;;19.51;71.82;100961.78;5004807;28;20039;-68
2023/06/20 03:18:08;;;;;;;14.10;10.98;;;;;;;19.50;71.93;100962.81;4988112;28;20049;-69
2023/06/20 03:20:34;;;;;;;18.48;11.32;;;;;;;19.48;71.89;100962.09;4989978;28;20030;-70
2023/06/20 03:22:59;;;;;;;18.50;12.55;;;;;;;19.45;72.87;100969.88;5004223;28;20482;-67
2023/06/20 03:25:25;;;;;;;20.73;13.13;;;;;;;19.42;71.46;100957.25;5004771;28;20184;-68
2023/06/20 03:27:52;;;;;;;19.40;12.48;;;;;;;19.43;71.29;100958.97;5004013;28;20572;-67
2023/06/20 03:30:19;;;;;;;15.82;12.20;;;;;;;19.42;71.55;100967.44;5004108;28;20085;-69
2023/06/20 03:32:48;;;;;;;18.95;12.38;;;;;;;19.42;71.26;100971.03;5020786;28;20370;-70
2023/06/20 03:35:13;;;;;;;19.50;12.73;;;;;;;19.38;71.31;100959.47;5008966;28;20022;-68
2023/06/20 03:37:39;;;;;;;19.45;13.52;;;;;;;19.35;70.72;100969.97;4990862;28;20120;-69
2023/06/20 03:40:05;;;;;;;17.67;12.65;;;;;;;19.35;71.02;100969.97;4990152;28;20035;-69
2023/06/20 03:42:33;;;;;;;19.00;12.07;;;;;;;19.31;71.35;100974.97;4987433;28;20113;-68
2023/06/20 03:44:58;;;;;;;16.05;11.35;;;;;;;19.28;71.66;100980.81;5000141;28;20597;-70
2023/06/20 03:47:24;;;;;;;17.60;11.40;;;;;;;19.25;71.25;100983.88;5007325;28;20493;-69
2023/06/20 03:49:50;;;;;;;18.05;12.05;;;;;;;19.27;72.03;100992.03;5003505;28;20041;-68
2023/06/20 03:52:15;;;;;;;15.88;11.20;;;;;;;19.26;71.47;100991.16;4987512;28;20367;-68
2023/06/20 03:54:41;;;;;;;16.92;11.93;;;;;;;19.26;71.64;101002.19;4972189;28;20038;-68
2023/06/20 03:57:07;;;;;;;16.63;11.93;;;;;;;19.25;71.00;101003.19;4988577;28;20038;-68
2023/06/20 03:59:32;;;;;;;21.58;11.23;;;;;;;19.24;71.42;100997.84;5004374;28;20034;-68
2023/06/20 04:01:58;;;;;;;19.75;12.10;;;;;;;19.20;72.63;101002.81;4987567;28;20022;-69
2023/06/20 04:04:24;;;;;;;19.92;11.65;;;;;;;19.22;72.75;101011.81;4989087;28;20042;-67
2023/06/20 04:06:49;;;;;;;16.83;11.90;;;;;;;19.21;72.37;101012.84;4988729;28;20046;-68
2023/06/20 04:09:17;;;;;;;18.25;12.38;;;;;;;19.20;72.74;101010.25;4987474;28;20589;-68
2023/06/20 04:11:44;;;;;;;17.63;10.88;;;;;;;19.21;72.73;101014.72;4987274;28;20027;-68
2023/06/20 04:14:12;;;;;;;18.30;11.70;;;;;;;19.20;72.70;101018.50;4989368;28;20034;-68
2023/06/20 04:16:37;;;;;;;21.55;11.95;;;;;;;19.17;73.09;101008.69;5003794;28;20056;-68
2023/06/20 04:19:03;;;;;;;18.25;12.60;;;;;;;19.11;74.80;101001.91;4991539;28;20519;-68
2023/06/20 04:21:31;;;;;;;19.75;12.48;;;;;;;19.03;74.51;100995.50;5007790;28;20057;-68
2023/06/20 04:23:57;;;;;;;20.52;12.30;;;;;;;19.02;72.64;100994.59;4990942;28;20486;-68
2023/06/20 04:26:22;;;;;;;17.60;12.40;;;;;;;19.03;72.84;100992.75;4991133;28;20080;-68
2023/06/20 04:28:48;;;;;;;17.40;12.48;;;;;;;19.05;73.33;100988.78;4992524;28;20057;-68
2023/06/20 04:31:14;;;;;;;17.95;12.70;;;;;;;19.06;73.38;100981.38;4991159;28;20080;-68
2023/06/20 04:33:43;;;;;;;17.25;12.52;;;;;;;19.07;72.73;100978.47;4992877;28;20049;-68
2023/06/20 04:36:13;;;;;;;19.08;12.80;;;;;;;19.09;73.42;100983.81;4991474;28;20054;-70
2023/06/20 04:38:39;;;;;;;18.17;12.38;;;;;;;19.09;73.54;100983.81;4991215;28;20049;-69
2023/06/20 04:41:06;;;;;;;21.13;14.00;;;;;;;19.10;75.60;100982.78;5007374;28;20038;-68
2023/06/20 04:43:32;;;;;;;19.15;13.55;;;;;;;19.15;74.81;100980.38;5007019;28;20474;-68
2023/06/20 04:45:58;;;;;;;16.60;12.73;;;;;;;19.25;75.61;100983.03;4992459;28;20062;-69
2023/06/20 04:48:30;;;;;;;16.50;12.88;;;;;;;19.33;75.37;100975.66;4991963;28;20042;-69
2023/06/20 04:50:56;;;;;;;22.00;12.88;;;;;;;19.42;74.75;100971.03;5006952;28;20493;-69
2023/06/20 04:53:23;;;;;;;18.55;13.32;;;;;;;19.49;75.76;100974.88;4990740;28;20023;-69
2023/06/20 04:55:49;;;;;;;20.23;13.95;;;;;;;19.58;75.43;100970.25;4990299;28;20034;-69
2023/06/20 04:58:15;;;;;;;18.38;13.05;;;;;;;19.65;75.86;100971.34;5006751;28;20176;-69
2023/06/20 05:00:40;;;;;;;20.02;12.85;;;;;;;19.77;75.05;100974.66;5006835;28;20027;-69
2023/06/20 05:03:06;;;;;;;19.52;13.48;;;;;;;19.90;74.95;100975.03;4989062;28;20073;-68
2023/06/20 05:05:32;;;;;;;17.67;12.73;;;;;;;19.98;74.47;100971.44;4990441;28;20034;-69
2023/06/20 05:07:58;;;;;;;18.55;13.52;;;;;;;20.02;74.36;100975.59;5008259;28;20022;-68
2023/06/20 05:10:24;;;;;;;21.90;13.68;;;;;;;20.06;74.46;100965.94;5004513;28;20106;-68
2023/06/20 05:12:49;;;;;;;20.13;14.75;;;;;;;20.10;72.67;100956.28;4991266;28;20141;-68
2023/06/20 05:15:15;;;;;;;19.10;13.77;;;;;;;20.17;73.93;100956.44;4991801;28;20061;-69
2023/06/20 05:17:40;;;;;;;20.65;14.98;;;;;;;20.27;73.30;100954.38;4991695;28;20045;-69
2023/06/20 05:20:06;;;;;;;25.77;14.90;;;;;;;20.41;73.04;100950.06;5006023;28;20541;-68
2023/06/20 05:22:35;;;;;;;22.58;15.70;;;;;;;20.59;72.18;100943.34;5007646;28;20049;-69
2023/06/20 05:25:00;;;;;;;20.52;15.73;;;;;;;20.70;72.52;100942.13;5008228;28;20041;-70
2023/06/20 05:27:26;;;;;;;22.00;16.30;;;;;;;20.91;71.30;100937.97;4991420;28;20045;-69
2023/06/20 05:29:51;;;;;;;24.65;16.23;;;;;;;21.13;71.61;100940.00;4990341;28;20515;-69
2023/06/20 05:32:16;;;;;;;26.30;17.05;;;;;;;21.31;72.38;100942.53;4991128;28;20038;-69
2023/06/20 05:34:42;;;;;;;22.77;16.50;;;;;;;21.46;70.53;100931.59;4991505;28;20145;-68
2023/06/20 05:37:07;;;;;;;23.38;16.48;;;;;;;21.62;68.60;100928.72;4990850;28;20086;-68
2023/06/20 05:39:32;;;;;;;24.73;15.85;;;;;;;21.80;69.62;100928.47;5006090;28;20037;-68
2023/06/20 05:41:58;;;;;;;21.75;16.52;;;;;;;21.98;68.81;100919.88;5008226;28;20042;-67
2023/06/20 05:44:23;;;;;;;24.38;16.25;;;;;;;22.08;67.45;100921.34;5019363;28;20026;-69
2023/06/20 05:46:48;;;;;;;22.95;16.10;;;;;;;22.25;67.42;100918.50;5005108;28;20038;-68
2023/06/20 05:49:15;;;;;;;26.15;17.50;;;;;;;22.39;67.44;100915.75;5009508;28;20557;-68
2023/06/20 05:51:44;;;;;;;23.55;16.95;;;;;;;22.54;66.96;100914.94;5005717;28;20033;-68
2023/06/20 05:54:09;;;;;;;21.35;16.13;;;;;;;22.67;67.51;100929.03;5010726;28;20346;-70
2023/06/20 05:56:34;;;;;;;20.65;15.27;;;;;;;22.72;65.97;100921.00;5009691;28;20129;-69
2023/06/20 05:59:00;;;;;;;23.92;15.68;;;;;;;22.77;65.65;100931.53;5006466;28;20042;-70
2023/06/20 06:01:25;;;;;;;27.65;15.70;;;;;;;22.80;66.78;100931.13;5009076;28;20121;-70
2023/06/20 06:03:51;;;;;;;27.98;16.05;;;;;;;22.91;68.75;100937.13;5010043;28;20041;-69
2023/06/20 06:06:16;;;;;;;53.95;16.98;;;;;;;23.03;67.09;100942.19;5008820;28;20129;-68
2023/06/20 06:08:42;;;;;;;52.47;16.73;;;;;;;23.05;68.15;100937.34;5009565;28;20049;-70
2023/06/20 06:11:07;;;;;;;22.95;13.32;;;;;;;23.01;68.33;100938.75;5000092;28;20022;-69
2023/06/20 06:13:33;;;;;;;18.17;11.60;;;;;;;23.11;68.60;100950.44;4990472;28;20562;-68
2023/06/20 06:15:58;;;;;;;13.73;9.85;;;;;;;23.22;69.06;100954.66;4990857;28;20043;-69
2023/06/20 06:18:24;;;;;;;13.40;9.60;;;;;;;23.42;67.83;100940.00;4993855;28;20509;-69
2023/06/20 06:20:49;;;;;;;11.23;8.20;;;;;;;23.65;67.23;100939.06;5009702;28;20025;-68
2023/06/20 06:23:15;;;;;;;11.95;6.75;;;;;;;23.66;65.11;100933.28;5004658;28;20577;-68
2023/06/20 06:25:40;;;;;;;8.93;6.30;;;;;;;23.74;66.66;100928.69;4992494;28;20534;-69
2023/06/20 06:28:05;;;;;;;9.38;6.20;;;;;;;23.83;66.89;100939.50;4989984;28;20053;-69
2023/06/20 06:30:33;;;;;;;9.50;6.35;;;;;;;23.90;65.67;100940.41;4988605;28;20186;-68
2023/06/20 06:32:59;;;;;;;10.55;6.22;;;;;;;23.91;64.62;100935.72;4990208;28;20121;-69
2023/06/20 06:35:24;;;;;;;8.95;5.68;;;;;;;24.02;65.78;100938.00;4990516;28;20045;-68
2023/06/20 06:37:52;;;;;;;13.93;5.95;;;;;;;24.03;65.64;100942.50;5001438;28;20385;-69
2023/06/20 06:40:20;;;;;;;8.20;6.20;;;;;;;23.97;65.20;100956.28;5009064;28;20124;-69
2023/06/20 06:42:46;;;;;;;11.50;5.72;;;;;;;23.99;64.58;100941.16;5008205;28;20030;-67
2023/06/20 06:45:11;;;;;;;7.82;5.10;;;;;;;24.04;65.03;100943.34;5007573;28;20025;-68
2023/06/20 06:47:37;;;;;;;10.25;5.55;;;;;;;23.98;65.07;100938.59;5007939;28;20041;-70
2023/06/20 06:50:02;;;;;;;6.35;5.50;;;;;;;23.93;64.52;100948.38;4991561;28;20038;-68
2023/06/20 06:52:30;;;;;;;11.15;6.18;;;;;;;23.83;65.65;100956.16;4989672;28;20042;-67
2023/06/20 06:54:55;;;;;;;6.72;5.82;;;;;;;23.83;64.76;100946.97;4990049;28;20039;-68
2023/06/20 06:57:21;;;;;;;9.40;6.85;;;;;;;23.70;65.48;100944.03;5009339;28;20042;-69
2023/06/20 06:59:46;;;;;;;12.07;6.78;;;;;;;23.64;65.67;100931.75;5000307;28;20026;-69
2023/06/20 07:02:13;;;;;;;7.82;6.35;;;;;;;23.67;65.47;100939.72;5006309;28;20141;-69
2023/06/20 07:04:39;;;;;;;10.05;6.55;;;;;;;23.71;67.30;100940.19;5009086;28;20069;-68
2023/06/20 07:07:05;;;;;;;7.55;6.22;;;;;;;23.73;66.39;100932.50;5008729;28;20124;-69
2023/06/20 07:09:30;;;;;;;9.57;5.97;;;;;;;23.75;65.96;100936.81;4991482;28;20045;-70
2023/06/20 07:11:56;;;;;;;11.85;7.10;;;;;;;23.72;66.50;100933.56;4989721;28;20076;-69
2023/06/20 07:14:21;;;;;;;8.57;7.07;;;;;;;23.64;66.20;100943.75;4990396;28;20047;-70
2023/06/20 07:16:46;;;;;;;8.13;6.97;;;;;;;23.62;66.20;100936.63;5004444;28;20061;-69
2023/06/20 07:19:12;;;;;;;7.68;6.72;;;;;;;23.60;65.92;100931.28;4989863;28;20038;-68
2023/06/20 07:21:37;;;;;;;10.45;6.60;;;;;;;23.66;66.74;100933.28;4989296;28;20347;-69
2023/06/20 07:24:03;;;;;;;11.25;6.82;;;;;;;23.65;65.85;100926.03;5004402;28;20445;-69
2023/06/20 07:26:28;;;;;;;7.88;6.82;;;;;;;23.72;66.49;100925.22;4990206;28;20045;-69
2023/06/20 07:28:53;;;;;;;8.68;6.55;;;;;;;23.70;65.33;100919.03;4989485;28;20045;-69
2023/06/20 07:31:19;;;;;;;9.57;7.47;;;;;;;23.76;66.84;100915.47;4989238;28;20038;-69
2023/06/20 07:33:45;;;;;;;10.75;7.55;;;;;;;23.74;65.78;100912.88;5000053;28;20474;-69
2023/06/20 07:36:11;;;;;;;9.70;7.53;;;;;;;23.76;67.21;100909.91;5007678;28;20461;-69
2023/06/20 07:38:36;;;;;;;7.55;5.72;;;;;;;23.87;66.18;100915.78;4991436;28;20030;-69
2023/06/20 07:41:02;;;;;;;9.10;6.68;;;;;;;23.89;66.17;100912.84;4988906;28;20061;-70
2023/06/20 07:43:27;;;;;;;9.70;6.18;;;;;;;23.93;66.59;100905.81;5003696;28;20070;-71
2023/06/20 07:45:52;;;;;;;8.38;6.13;;;;;;;23.90;65.78;100901.50;5007219;28;20038;-69
2023/06/20 07:48:18;;;;;;;7.93;5.38;;;;;;;23.98;66.44;100892.19;4989000;28;20085;-69
2023/06/20 07:50:43;;;;;;;8.63;5.95;;;;;;;24.10;66.76;100895.28;4989338;28;20053;-70
2023/06/20 07:53:08;;;;;;;8.10;5.68;;;;;;;24.17;65.77;100912.91;4990851;28;20129;-69
2023/06/20 07:55:34;;;;;;;7.72;4.95;;;;;;;24.26;64.91;100908.94;4993270;28;20382;-69
2023/06/20 07:57:59;;;;;;;7.75;6.30;;;;;;;24.39;65.31;100923.00;4993010;28;20511;-69
2023/06/20 08:00:25;;;;;;;8.95;6.30;;;;;;;24.52;65.80;100925.03;5006329;28;20488;-69
2023/06/20 08:02:52;;;;;;;8.52;6.38;;;;;;;24.58;64.86;100926.16;5012808;28;20520;-69
2023/06/20 08:05:17;;;;;;;21.95;6.65;;;;;;;24.68;66.03;100916.41;4993478;28;20080;-69
2023/06/20 08:07:42;;;;;;;8.27;6.22;;;;;;;24.87;65.53;100925.09;4998715;28;20491;-71
2023/06/20 08:10:10;;;;;;;9.07;5.75;;;;;;;25.21;64.03;100923.44;4994599;28;20034;-69
2023/06/20 08:12:36;;;;;;;7.30;5.00;;;;;;;25.61;62.86;100928.16;5012272;28;20053;-70
2023/06/20 08:15:01;;;;;;;6.43;5.72;;;;;;;25.84;59.07;100916.69;5002149;28;20493;-69
2023/06/20 08:17:27;;;;;;;7.82;5.57;;;;;;;26.41;60.16;100915.28;4992467;28;20045;-69
2023/06/20 08:19:52;;;;;;;7.60;5.28;;;;;;;26.99;59.76;100910.97;4993045;28;20046;-70
2023/06/20 08:22:17;;;;;;;6.75;6.03;;;;;;;27.30;57.41;100918.69;4992603;28;20431;-69
2023/06/20 08:24:43;;;;;;;7.40;5.82;;;;;;;27.62;55.63;100911.25;4992499;28;20490;-71
2023/06/20 08:27:08;;;;;;;10.05;5.95;;;;;;;27.92;54.97;100912.41;4992479;28;20481;-70
2023/06/20 08:29:34;;;;;;;10.85;5.22;;;;;;;28.41;55.16;100910.84;4999099;28;20116;-69
2023/06/20 08:32:00;;;;;;;8.32;5.55;;;;;;;28.81;52.86;100907.69;5011983;28;20045;-68
2023/06/20 08:34:25;;;;;;;7.78;5.10;;;;;;;29.26;52.74;100924.28;5011951;28;20030;-69
2023/06/20 08:36:53;;;;;;;7.85;5.70;;;;;;;29.38;51.36;100921.59;5008756;28;20544;-69
2023/06/20 08:39:18;;;;;;;5.82;5.20;;;;;;;29.64;50.12;100918.47;4992095;28;20073;-68
2023/06/20 08:41:44;;;;;;;26.20;7.13;;;;;;;29.41;48.76;100912.69;5006551;28;20501;-68
2023/06/20 08:44:09;;;;;;;159.55;14.38;;;;;;;29.81;49.57;100910.28;4995213;28;20041;-69
2023/06/20 08:46:35;;;;;;;11.23;5.70;;;;;;;29.60;48.63;100911.63;5011458;28;20394;-69
2023/06/20 08:49:00;;;;;;;7.65;4.90;;;;;;;29.78;49.19;100909.88;5011626;28;20124;-69
2023/06/20 08:51:29;;;;;;;6.20;5.18;;;;;;;29.68;48.46;100908.50;4997643;28;20053;-68
2023/06/20 08:53:54;;;;;;;9.95;4.70;;;;;;;29.49;48.93;100909.56;4991848;28;20050;-71
2023/06/20 08:56:20;;;;;;;6.00;4.90;;;;;;;29.63;47.77;100905.53;4992297;28;20026;-69
2023/06/20 08:58:46;;;;;;;219.57;17.33;;;;;;;30.02;49.37;100908.03;5006741;28;20092;-69
2023/06/20 09:01:12;;;;;;;33.38;6.15;;;;;;;30.51;48.15;100903.22;4991100;28;20462;-70
2023/06/20 09:03:37;;;;;;;13.32;4.55;;;;;;;30.39;46.96;100901.22;5006782;28;20490;-70
2023/06/20 09:06:04;;;;;;;8.30;4.43;;;;;;;30.41;47.15;100904.66;5006370;28;20057;-68
2023/06/20 09:08:37;;;;;;;8.45;4.35;;;;;;;30.80;46.92;100893.00;4991735;28;20118;-69
2023/06/20 09:11:11;;;;;;;11.35;4.00;;;;;;;31.25;46.47;100898.84;4990046;28;20034;-68
2023/06/20 09:13:37;;;;;;;10.63;3.90;;;;;;;31.09;43.51;100899.59;4991640;28;20401;-69
2023/06/20 09:16:04;;;;;;;5.18;3.97;;;;;;;31.14;44.07;100897.75;4992130;28;20049;-69
2023/06/20 09:18:30;;;;;;;4.65;4.07;;;;;;;31.04;45.59;100902.28;4991563;28;20046;-69
2023/06/20 09:20:58;;;;;;;18.20;4.72;;;;;;;31.16;44.50;100903.16;4991789;28;20356;-69
2023/06/20 09:23:29;;;;;;;6.55;3.85;;;;;;;31.38;45.43;100894.94;5006245;28;20022;-69
2023/06/20 09:25:56;;;;;;;6.65;3.97;;;;;;;31.55;45.27;100898.69;4991323;28;20372;-69
2023/06/20 09:28:21;;;;;;;8.25;4.30;;;;;;;31.76;44.32;100902.78;4991041;28;20034;-69
2023/06/20 09:30:48;;;;;;;5.32;3.72;;;;;;;31.55;43.85;100904.31;4991689;28;20478;-69
2023/06/20 09:33:15;;;;;;;7.20;4.15;;;;;;;31.43;43.19;100909.97;5008166;28;20046;-70
2023/06/20 09:35:41;;;;;;;5.15;4.00;;;;;;;31.60;44.01;100910.03;5006133;28;20183;-69
2023/06/20 09:38:06;;;;;;;8.43;4.05;;;;;;;31.71;41.85;100916.72;4990994;28;20125;-69
2023/06/20 09:40:41;;;;;;;4.07;3.67;;;;;;;31.62;42.55;100916.28;5005803;28;20393;-71
2023/06/20 09:43:06;;;;;;;1008.50;81.00;;;;;;;31.44;42.54;100908.88;4989686;28;20403;-68
2023/06/20 09:45:32;;;;;;;45.03;5.60;;;;;;;31.74;43.74;100907.81;4990903;28;20042;-68
2023/06/20 09:47:57;;;;;;;11.55;4.60;;;;;;;32.30;43.37;100905.25;4990810;28;20189;-68
2023/06/20 09:50:24;;;;;;;9.32;4.07;;;;;;;32.53;43.47;100915.56;4991063;28;20501;-68
2023/06/20 09:53:09;;;;;;;4.70;4.20;;;;;;;32.87;42.13;100910.75;4991172;28;20042;-68
2023/06/20 09:55:35;;;;;;;4.60;3.90;;;;;;;32.47;42.72;100907.03;4993093;28;20046;-70
2023/06/20 09:58:03;;;;;;;4.80;4.13;;;;;;;32.34;42.67;100907.31;4990627;28;20117;-69
2023/06/20 10:00:30;;;;;;;7.35;4.30;;;;;;;32.56;42.38;100900.97;5005288;28;20390;-68
2023/06/20 10:02:59;;;;;;;5.05;3.90;;;;;;;32.87;41.96;100908.78;4989313;28;20125;-68
2023/06/20 10:05:27;;;;;;;54.85;6.82;;;;;;;33.22;42.13;100907.69;4991133;28;20037;-67
2023/06/20 10:07:57;;;;;;;22.08;4.25;;;;;;;33.19;41.51;100908.19;4990219;28;20034;-68
2023/06/20 10:10:23;;;;;;;11.30;3.67;;;;;;;33.10;39.32;100902.13;4994022;28;20498;-68
2023/06/20 10:12:49;;;;;;;8.27;3.63;;;;;;;33.41;39.77;100899.75;5010033;28;20117;-69
2023/06/20 10:15:15;;;;;;;5.22;3.50;;;;;;;33.38;39.50;100898.28;4998247;28;20161;-67
2023/06/20 10:17:43;;;;;;;8.57;4.00;;;;;;;33.39;39.37;100900.03;4990484;28;20049;-68
2023/06/20 10:20:33;;;;;;;7.18;3.58;;;;;;;33.80;40.47;100897.72;4990942;28;20045;-69
2023/06/20 10:23:04;;;;;;;5.20;4.03;;;;;;;33.83;38.60;100888.75;4990525;28;20053;-69
2023/06/20 10:25:30;;;;;;;5.20;4.32;;;;;;;33.47;36.82;100890.28;4990706;28;20584;-69
2023/06/20 10:28:02;;;;;;;6.72;3.90;;;;;;;33.41;39.63;100878.03;4990063;28;20038;-68
2023/06/20 10:30:49;;;;;;;5.20;3.72;;;;;;;33.61;39.88;100885.09;4990617;28;20101;-68
2023/06/20 10:33:17;;;;;;;5.53;3.33;;;;;;;34.00;35.11;100880.22;4990686;28;20121;-69
2023/06/20 10:35:48;;;;;;;3.53;2.95;;;;;;;34.10;36.92;100873.81;4990377;28;20038;-68
2023/06/20 10:38:14;;;;;;;4.75;2.95;;;;;;;34.09;36.95;100870.16;4990041;28;20395;-69
2023/06/20 10:40:40;;;;;;;4.70;3.30;;;;;;;34.07;35.69;100865.88;4990773;28;20109;-69
2023/06/20 10:43:14;;;;;;;4.60;3.25;;;;;;;34.34;36.47;100860.22;4989814;28;20053;-68
2023/06/20 10:45:52;;;;;;;2.90;2.60;;;;;;;34.70;37.14;100856.59;4990857;28;20081;-69
2023/06/20 10:48:18;;;;;;;6.35;3.13;;;;;;;34.72;35.55;100851.50;4994213;28;20037;-68
2023/06/20 10:50:43;;;;;;;11.73;2.95;;;;;;;35.05;35.50;100841.00;5008149;28;20072;-68
2023/06/20 10:53:09;;;;;;;3.15;2.50;;;;;;;35.10;33.57;100841.03;5008192;28;20033;-68
2023/06/20 10:55:38;;;;;;;4.32;2.53;;;;;;;35.03;34.24;100837.59;5008958;28;20112;-68
2023/06/20 10:58:03;;;;;;;4.20;3.00;;;;;;;35.24;33.95;100842.22;5009177;28;20037;-69
2023/06/20 11:00:28;;;;;;;51.03;9.93;;;;;;;35.36;34.98;100844.84;4996077;28;20112;-68
2023/06/20 11:02:55;;;;;;;4.95;2.13;;;;;;;35.86;34.87;100845.28;5013898;28;20087;-68
2023/06/20 11:05:26;;;;;;;4.65;2.97;;;;;;;35.77;32.87;100843.03;5008833;28;20153;-68
2023/06/20 11:07:52;;;;;;;5.47;2.42;;;;;;;35.95;32.92;100829.50;5008351;28;20045;-69
2023/06/20 11:10:20;;;;;;;3.60;2.45;;;;;;;35.84;32.69;100830.59;4999135;28;20033;-69
2023/06/20 11:12:46;;;;;;;4.35;2.58;;;;;;;35.81;32.03;100825.47;5004278;28;20122;-67
2023/06/20 11:15:26;;;;;;;3.50;2.30;;;;;;;35.85;33.16;100829.44;4989538;28;20357;-69